Anamoose, North Dakota
Current Conditions -  °F | °C
As of 7:15 AM on Thursday 23 Oct 2014 (Local Time) from K5H4 Reporting Station
Clear Clear  
Wind Chill: 31°   Ceiling: Unl
Heat Index: 37°   Visibility: 10mi
Dew Point: 34°   Wind: 8mph
Humidity: 87%   Direction: 230°SW
Pressure: 29.87"   Gusts: NA
Location:  47.88°N, 100.24°W
Report Text: K5H4 231215Z AUTO 23007KT 10SM CLR 03/01 A2987 RMK AO2
Loading
Personal Weather Stations






























Interactive Weather Map
Tropical Storm Tracking
New forecast layout! Learn more

10-Day Weather Forecast

Advertisements
Track Severe Weather on mobile